sensor_id;sensor_type;location;lat;lon;timestamp;P1;durP1;ratioP1;P2;durP2;ratioP2
11447;SDS011;43755;49.736;8.734;2022-08-06T00:01:53;2.85;;;1.70;;
11447;SDS011;43755;49.736;8.734;2022-08-06T00:03:55;2.60;;;1.80;;
11447;SDS011;43755;49.736;8.734;2022-08-06T00:05:58;1.77;;;1.50;;
11447;SDS011;43755;49.736;8.734;2022-08-06T00:07:59;4.30;;;1.77;;
11447;SDS011;43755;49.736;8.734;2022-08-06T00:10:01;1.85;;;1.60;;
11447;SDS011;43755;49.736;8.734;2022-08-06T00:12:03;1.60;;;1.50;;
11447;SDS011;43755;49.736;8.734;2022-08-06T00:14:05;3.85;;;1.80;;
11447;SDS011;43755;49.736;8.734;2022-08-06T00:16:07;2.00;;;1.80;;
11447;SDS011;43755;49.736;8.734;2022-08-06T00:18:09;2.80;;;1.85;;
11447;SDS011;43755;49.736;8.734;2022-08-06T00:20:11;2.47;;;1.80;;
11447;SDS011;43755;49.736;8.734;2022-08-06T00:22:14;4.70;;;1.88;;
11447;SDS011;43755;49.736;8.734;2022-08-06T00:24:15;3.03;;;2.03;;
11447;SDS011;43755;49.736;8.734;2022-08-06T00:26:17;1.80;;;1.63;;
11447;SDS011;43755;49.736;8.734;2022-08-06T00:28:19;1.77;;;1.67;;
11447;SDS011;43755;49.736;8.734;2022-08-06T00:30:21;3.17;;;1.90;;
11447;SDS011;43755;49.736;8.734;2022-08-06T00:32:23;3.58;;;2.05;;
11447;SDS011;43755;49.736;8.734;2022-08-06T00:34:24;2.58;;;1.83;;
11447;SDS011;43755;49.736;8.734;2022-08-06T00:36:26;2.25;;;2.08;;
11447;SDS011;43755;49.736;8.734;2022-08-06T00:38:30;1.92;;;1.60;;
11447;SDS011;43755;49.736;8.734;2022-08-06T00:40:31;2.15;;;1.92;;
11447;SDS011;43755;49.736;8.734;2022-08-06T00:42:33;1.88;;;1.75;;
11447;SDS011;43755;49.736;8.734;2022-08-06T00:44:35;3.88;;;1.80;;
11447;SDS011;43755;49.736;8.734;2022-08-06T00:46:36;2.85;;;1.73;;
11447;SDS011;43755;49.736;8.734;2022-08-06T00:48:38;2.78;;;1.77;;
11447;SDS011;43755;49.736;8.734;2022-08-06T00:50:39;1.75;;;1.65;;
11447;SDS011;43755;49.736;8.734;2022-08-06T00:52:41;2.35;;;2.00;;
11447;SDS011;43755;49.736;8.734;2022-08-06T00:54:45;2.33;;;1.73;;
11447;SDS011;43755;49.736;8.734;2022-08-06T00:56:47;2.97;;;1.90;;
11447;SDS011;43755;49.736;8.734;2022-08-06T00:58:48;2.95;;;2.10;;
11447;SDS011;43755;49.736;8.734;2022-08-06T01:00:50;4.50;;;1.90;;
11447;SDS011;43755;49.736;8.734;2022-08-06T01:02:51;3.53;;;2.00;;
11447;SDS011;43755;49.736;8.734;2022-08-06T01:04:53;4.30;;;2.22;;
11447;SDS011;43755;49.736;8.734;2022-08-06T01:06:54;3.30;;;1.90;;
11447;SDS011;43755;49.736;8.734;2022-08-06T01:08:56;3.65;;;2.00;;
11447;SDS011;43755;49.736;8.734;2022-08-06T01:10:59;2.00;;;1.90;;
11447;SDS011;43755;49.736;8.734;2022-08-06T01:13:00;3.53;;;2.10;;
11447;SDS011;43755;49.736;8.734;2022-08-06T01:15:02;2.20;;;2.00;;
11447;SDS011;43755;49.736;8.734;2022-08-06T01:17:07;3.70;;;1.83;;
11447;SDS011;43755;49.736;8.734;2022-08-06T01:19:24;3.75;;;1.90;;
11447;SDS011;43755;49.736;8.734;2022-08-06T01:21:43;2.47;;;2.03;;
11447;SDS011;43755;49.736;8.734;2022-08-06T01:26:32;1.70;;;1.60;;
11447;SDS011;43755;49.736;8.734;2022-08-06T01:28:40;3.63;;;1.90;;
11447;SDS011;43755;49.736;8.734;2022-08-06T01:30:48;3.33;;;1.92;;
11447;SDS011;43755;49.736;8.734;2022-08-06T01:32:55;3.83;;;1.90;;
11447;SDS011;43755;49.736;8.734;2022-08-06T01:35:04;2.45;;;1.90;;
11447;SDS011;43755;49.736;8.734;2022-08-06T01:37:09;1.83;;;1.65;;
11447;SDS011;43755;49.736;8.734;2022-08-06T01:39:16;2.55;;;1.90;;
11447;SDS011;43755;49.736;8.734;2022-08-06T01:41:20;2.65;;;1.70;;
11447;SDS011;43755;49.736;8.734;2022-08-06T01:43:51;2.00;;;1.80;;
11447;SDS011;43755;49.736;8.734;2022-08-06T01:45:53;2.30;;;1.70;;
11447;SDS011;43755;49.736;8.734;2022-08-06T01:47:56;2.00;;;1.80;;
11447;SDS011;43755;49.736;8.734;2022-08-06T01:50:02;2.70;;;1.70;;
11447;SDS011;43755;49.736;8.734;2022-08-06T01:52:06;1.80;;;1.70;;
11447;SDS011;43755;49.736;8.734;2022-08-06T01:54:11;1.98;;;1.88;;
11447;SDS011;43755;49.736;8.734;2022-08-06T01:56:15;1.50;;;1.40;;
11447;SDS011;43755;49.736;8.734;2022-08-06T01:58:19;2.05;;;1.90;;
11447;SDS011;43755;49.736;8.734;2022-08-06T02:00:24;2.20;;;2.00;;
11447;SDS011;43755;49.736;8.734;2022-08-06T02:02:27;2.67;;;1.90;;
11447;SDS011;43755;49.736;8.734;2022-08-06T02:04:33;3.28;;;1.70;;
11447;SDS011;43755;49.736;8.734;2022-08-06T02:06:42;3.22;;;1.92;;
11447;SDS011;43755;49.736;8.734;2022-08-06T02:08:46;1.80;;;1.70;;
11447;SDS011;43755;49.736;8.734;2022-08-06T02:10:50;1.92;;;1.80;;
11447;SDS011;43755;49.736;8.734;2022-08-06T02:12:54;2.00;;;1.90;;
11447;SDS011;43755;49.736;8.734;2022-08-06T02:14:56;2.13;;;1.77;;
11447;SDS011;43755;49.736;8.734;2022-08-06T02:17:01;1.90;;;1.80;;
11447;SDS011;43755;49.736;8.734;2022-08-06T02:19:04;1.95;;;1.83;;
11447;SDS011;43755;49.736;8.734;2022-08-06T02:21:09;2.28;;;1.73;;
11447;SDS011;43755;49.736;8.734;2022-08-06T02:23:16;3.08;;;2.13;;
11447;SDS011;43755;49.736;8.734;2022-08-06T02:25:20;1.80;;;1.70;;
11447;SDS011;43755;49.736;8.734;2022-08-06T02:27:23;2.10;;;1.90;;
11447;SDS011;43755;49.736;8.734;2022-08-06T02:29:26;3.65;;;2.00;;
11447;SDS011;43755;49.736;8.734;2022-08-06T02:31:29;4.75;;;2.03;;
11447;SDS011;43755;49.736;8.734;2022-08-06T02:33:32;3.72;;;2.00;;
11447;SDS011;43755;49.736;8.734;2022-08-06T02:35:34;2.13;;;1.88;;
11447;SDS011;43755;49.736;8.734;2022-08-06T02:37:40;3.85;;;2.00;;
11447;SDS011;43755;49.736;8.734;2022-08-06T02:39:46;2.58;;;1.70;;
11447;SDS011;43755;49.736;8.734;2022-08-06T02:41:53;2.40;;;1.88;;
11447;SDS011;43755;49.736;8.734;2022-08-06T02:44:04;1.83;;;1.70;;
11447;SDS011;43755;49.736;8.734;2022-08-06T02:46:11;1.95;;;1.77;;
11447;SDS011;43755;49.736;8.734;2022-08-06T02:48:18;2.33;;;1.73;;
11447;SDS011;43755;49.736;8.734;2022-08-06T02:50:27;1.92;;;1.70;;
11447;SDS011;43755;49.736;8.734;2022-08-06T02:52:35;1.85;;;1.75;;
11447;SDS011;43755;49.736;8.734;2022-08-06T02:54:42;1.80;;;1.70;;
11447;SDS011;43755;49.736;8.734;2022-08-06T02:56:47;1.73;;;1.63;;
11447;SDS011;43755;49.736;8.734;2022-08-06T02:58:52;3.95;;;1.70;;
11447;SDS011;43755;49.736;8.734;2022-08-06T03:00:56;3.30;;;1.80;;
11447;SDS011;43755;49.736;8.734;2022-08-06T03:03:00;3.38;;;1.60;;
11447;SDS011;43755;49.736;8.734;2022-08-06T03:05:05;1.80;;;1.70;;
11447;SDS011;43755;49.736;8.734;2022-08-06T03:07:11;3.95;;;1.77;;
11447;SDS011;43755;49.736;8.734;2022-08-06T03:09:15;1.88;;;1.40;;
11447;SDS011;43755;49.736;8.734;2022-08-06T03:11:18;2.20;;;1.65;;
11447;SDS011;43755;49.736;8.734;2022-08-06T03:13:21;2.58;;;1.65;;
11447;SDS011;43755;49.736;8.734;2022-08-06T03:15:23;2.92;;;1.67;;
11447;SDS011;43755;49.736;8.734;2022-08-06T03:17:26;1.90;;;1.67;;
11447;SDS011;43755;49.736;8.734;2022-08-06T03:19:29;1.70;;;1.60;;
11447;SDS011;43755;49.736;8.734;2022-08-06T03:21:31;2.08;;;1.80;;
11447;SDS011;43755;49.736;8.734;2022-08-06T03:23:36;2.15;;;1.50;;
11447;SDS011;43755;49.736;8.734;2022-08-06T03:25:39;1.83;;;1.50;;
11447;SDS011;43755;49.736;8.734;2022-08-06T03:27:42;2.42;;;1.90;;
11447;SDS011;43755;49.736;8.734;2022-08-06T03:29:45;2.35;;;1.48;;
11447;SDS011;43755;49.736;8.734;2022-08-06T03:31:46;2.80;;;1.65;;
11447;SDS011;43755;49.736;8.734;2022-08-06T03:33:48;4.30;;;1.90;;
11447;SDS011;43755;49.736;8.734;2022-08-06T03:35:51;2.00;;;1.63;;
11447;SDS011;43755;49.736;8.734;2022-08-06T03:37:54;1.80;;;1.70;;
11447;SDS011;43755;49.736;8.734;2022-08-06T03:39:59;2.13;;;1.60;;
11447;SDS011;43755;49.736;8.734;2022-08-06T03:42:02;1.92;;;1.40;;
11447;SDS011;43755;49.736;8.734;2022-08-06T03:44:04;3.92;;;1.80;;
11447;SDS011;43755;49.736;8.734;2022-08-06T03:46:06;2.45;;;1.60;;
11447;SDS011;43755;49.736;8.734;2022-08-06T03:48:08;1.73;;;1.60;;
11447;SDS011;43755;49.736;8.734;2022-08-06T03:50:16;2.50;;;1.45;;
11447;SDS011;43755;49.736;8.734;2022-08-06T03:52:23;3.50;;;1.50;;
11447;SDS011;43755;49.736;8.734;2022-08-06T03:54:28;2.13;;;1.60;;
11447;SDS011;43755;49.736;8.734;2022-08-06T03:56:33;2.17;;;1.50;;
11447;SDS011;43755;49.736;8.734;2022-08-06T03:58:38;1.73;;;1.63;;
11447;SDS011;43755;49.736;8.734;2022-08-06T04:00:42;1.55;;;1.45;;
11447;SDS011;43755;49.736;8.734;2022-08-06T04:02:47;2.35;;;1.40;;
11447;SDS011;43755;49.736;8.734;2022-08-06T04:04:51;1.77;;;1.60;;
11447;SDS011;43755;49.736;8.734;2022-08-06T04:06:53;1.98;;;1.60;;
11447;SDS011;43755;49.736;8.734;2022-08-06T04:08:56;2.45;;;1.60;;
11447;SDS011;43755;49.736;8.734;2022-08-06T04:11:00;1.85;;;1.52;;
11447;SDS011;43755;49.736;8.734;2022-08-06T04:13:04;3.00;;;1.55;;
11447;SDS011;43755;49.736;8.734;2022-08-06T04:15:07;2.03;;;1.50;;
11447;SDS011;43755;49.736;8.734;2022-08-06T04:17:10;1.90;;;1.80;;
11447;SDS011;43755;49.736;8.734;2022-08-06T04:19:12;1.60;;;1.50;;
11447;SDS011;43755;49.736;8.734;2022-08-06T04:21:19;1.50;;;1.40;;
11447;SDS011;43755;49.736;8.734;2022-08-06T04:23:23;3.13;;;1.80;;
11447;SDS011;43755;49.736;8.734;2022-08-06T04:25:25;1.80;;;1.58;;
11447;SDS011;43755;49.736;8.734;2022-08-06T04:27:29;2.47;;;1.63;;
11447;SDS011;43755;49.736;8.734;2022-08-06T04:29:33;1.50;;;1.40;;
11447;SDS011;43755;49.736;8.734;2022-08-06T04:31:38;2.05;;;1.60;;
11447;SDS011;43755;49.736;8.734;2022-08-06T04:33:41;1.70;;;1.35;;
11447;SDS011;43755;49.736;8.734;2022-08-06T04:35:44;2.35;;;1.30;;
11447;SDS011;43755;49.736;8.734;2022-08-06T04:37:46;2.38;;;1.48;;
11447;SDS011;43755;49.736;8.734;2022-08-06T04:39:48;2.10;;;1.33;;
11447;SDS011;43755;49.736;8.734;2022-08-06T04:41:50;1.50;;;1.40;;
11447;SDS011;43755;49.736;8.734;2022-08-06T04:43:52;1.52;;;1.33;;
11447;SDS011;43755;49.736;8.734;2022-08-06T04:45:55;1.73;;;1.42;;
11447;SDS011;43755;49.736;8.734;2022-08-06T04:47:57;1.30;;;1.20;;
11447;SDS011;43755;49.736;8.734;2022-08-06T04:50:00;3.13;;;1.48;;
11447;SDS011;43755;49.736;8.734;2022-08-06T04:52:03;4.28;;;1.50;;
11447;SDS011;43755;49.736;8.734;2022-08-06T04:54:05;3.70;;;1.40;;
11447;SDS011;43755;49.736;8.734;2022-08-06T04:56:07;2.95;;;1.15;;
11447;SDS011;43755;49.736;8.734;2022-08-06T04:58:11;2.45;;;1.40;;
11447;SDS011;43755;49.736;8.734;2022-08-06T05:00:14;1.52;;;1.42;;
11447;SDS011;43755;49.736;8.734;2022-08-06T05:02:17;1.95;;;1.55;;
11447;SDS011;43755;49.736;8.734;2022-08-06T05:04:19;3.33;;;1.40;;
11447;SDS011;43755;49.736;8.734;2022-08-06T05:06:22;1.60;;;1.50;;
11447;SDS011;43755;49.736;8.734;2022-08-06T05:08:27;1.92;;;1.23;;
11447;SDS011;43755;49.736;8.734;2022-08-06T05:10:31;2.15;;;1.30;;
11447;SDS011;43755;49.736;8.734;2022-08-06T05:12:40;2.70;;;1.35;;
11447;SDS011;43755;49.736;8.734;2022-08-06T05:14:45;1.75;;;1.30;;
11447;SDS011;43755;49.736;8.734;2022-08-06T05:16:49;2.55;;;1.30;;
11447;SDS011;43755;49.736;8.734;2022-08-06T05:18:57;2.70;;;1.40;;
11447;SDS011;43755;49.736;8.734;2022-08-06T05:21:00;1.95;;;1.40;;
11447;SDS011;43755;49.736;8.734;2022-08-06T05:23:05;1.45;;;1.30;;
11447;SDS011;43755;49.736;8.734;2022-08-06T05:25:10;1.95;;;1.40;;
11447;SDS011;43755;49.736;8.734;2022-08-06T05:27:12;1.40;;;1.30;;
11447;SDS011;43755;49.736;8.734;2022-08-06T05:29:16;2.30;;;1.40;;
11447;SDS011;43755;49.736;8.734;2022-08-06T05:31:27;2.05;;;1.40;;
11447;SDS011;43755;49.736;8.734;2022-08-06T05:33:31;2.88;;;1.40;;
11447;SDS011;43755;49.736;8.734;2022-08-06T05:35:37;2.10;;;1.33;;
11447;SDS011;43755;49.736;8.734;2022-08-06T05:37:39;1.20;;;1.10;;
11447;SDS011;43755;49.736;8.734;2022-08-06T05:39:41;1.98;;;1.35;;
11447;SDS011;43755;49.736;8.734;2022-08-06T05:41:42;3.40;;;1.38;;
11447;SDS011;43755;49.736;8.734;2022-08-06T05:43:43;5.45;;;1.67;;
11447;SDS011;43755;49.736;8.734;2022-08-06T05:45:45;1.85;;;1.50;;
11447;SDS011;43755;49.736;8.734;2022-08-06T05:47:49;2.30;;;1.60;;
11447;SDS011;43755;49.736;8.734;2022-08-06T05:49:52;2.15;;;1.50;;
11447;SDS011;43755;49.736;8.734;2022-08-06T05:52:00;2.17;;;1.60;;
11447;SDS011;43755;49.736;8.734;2022-08-06T05:54:07;1.77;;;1.50;;
11447;SDS011;43755;49.736;8.734;2022-08-06T05:56:14;2.13;;;1.40;;
11447;SDS011;43755;49.736;8.734;2022-08-06T05:58:19;1.40;;;1.30;;
11447;SDS011;43755;49.736;8.734;2022-08-06T06:00:25;2.17;;;1.48;;
11447;SDS011;43755;49.736;8.734;2022-08-06T06:02:29;2.38;;;1.50;;
11447;SDS011;43755;49.736;8.734;2022-08-06T06:04:31;1.80;;;1.60;;
11447;SDS011;43755;49.736;8.734;2022-08-06T06:06:33;1.63;;;1.40;;
11447;SDS011;43755;49.736;8.734;2022-08-06T06:08:36;1.58;;;1.48;;
11447;SDS011;43755;49.736;8.734;2022-08-06T06:10:38;4.97;;;1.50;;
11447;SDS011;43755;49.736;8.734;2022-08-06T06:12:41;1.42;;;1.33;;
11447;SDS011;43755;49.736;8.734;2022-08-06T06:14:44;1.90;;;1.55;;
11447;SDS011;43755;49.736;8.734;2022-08-06T06:16:50;2.25;;;2.00;;
11447;SDS011;43755;49.736;8.734;2022-08-06T06:18:59;1.83;;;1.70;;
11447;SDS011;43755;49.736;8.734;2022-08-06T06:21:10;1.50;;;1.40;;
11447;SDS011;43755;49.736;8.734;2022-08-06T06:23:21;1.73;;;1.60;;
11447;SDS011;43755;49.736;8.734;2022-08-06T06:25:29;2.05;;;1.48;;
11447;SDS011;43755;49.736;8.734;2022-08-06T06:27:38;3.83;;;1.70;;
11447;SDS011;43755;49.736;8.734;2022-08-06T06:29:49;2.60;;;1.77;;
11447;SDS011;43755;49.736;8.734;2022-08-06T06:31:58;3.33;;;1.40;;
11447;SDS011;43755;49.736;8.734;2022-08-06T06:34:04;2.40;;;1.58;;
11447;SDS011;43755;49.736;8.734;2022-08-06T06:36:11;1.75;;;1.65;;
11447;SDS011;43755;49.736;8.734;2022-08-06T06:38:25;3.85;;;1.65;;
11447;SDS011;43755;49.736;8.734;2022-08-06T06:40:38;2.72;;;1.75;;
11447;SDS011;43755;49.736;8.734;2022-08-06T06:42:51;3.90;;;1.80;;
11447;SDS011;43755;49.736;8.734;2022-08-06T06:45:02;2.80;;;2.10;;
11447;SDS011;43755;49.736;8.734;2022-08-06T06:47:07;2.20;;;1.60;;
11447;SDS011;43755;49.736;8.734;2022-08-06T06:49:16;2.83;;;1.50;;
11447;SDS011;43755;49.736;8.734;2022-08-06T06:51:21;1.50;;;1.40;;
11447;SDS011;43755;49.736;8.734;2022-08-06T06:53:28;3.35;;;1.73;;
11447;SDS011;43755;49.736;8.734;2022-08-06T06:55:40;1.70;;;1.60;;
11447;SDS011;43755;49.736;8.734;2022-08-06T06:57:47;2.83;;;1.83;;
11447;SDS011;43755;49.736;8.734;2022-08-06T06:59:52;2.10;;;1.98;;
11447;SDS011;43755;49.736;8.734;2022-08-06T07:01:55;3.45;;;1.80;;
11447;SDS011;43755;49.736;8.734;2022-08-06T07:03:59;1.63;;;1.52;;
11447;SDS011;43755;49.736;8.734;2022-08-06T07:06:02;2.70;;;1.83;;
11447;SDS011;43755;49.736;8.734;2022-08-06T07:08:05;1.85;;;1.70;;
11447;SDS011;43755;49.736;8.734;2022-08-06T07:10:10;3.35;;;1.65;;
11447;SDS011;43755;49.736;8.734;2022-08-06T07:12:15;2.15;;;1.60;;
11447;SDS011;43755;49.736;8.734;2022-08-06T07:14:21;1.63;;;1.50;;
11447;SDS011;43755;49.736;8.734;2022-08-06T07:16:24;1.95;;;1.58;;
11447;SDS011;43755;49.736;8.734;2022-08-06T07:18:27;1.60;;;1.50;;
11447;SDS011;43755;49.736;8.734;2022-08-06T07:20:30;2.70;;;1.80;;
11447;SDS011;43755;49.736;8.734;2022-08-06T07:22:32;2.40;;;1.73;;
11447;SDS011;43755;49.736;8.734;2022-08-06T07:24:36;5.28;;;1.50;;
11447;SDS011;43755;49.736;8.734;2022-08-06T07:26:38;2.95;;;1.30;;
11447;SDS011;43755;49.736;8.734;2022-08-06T07:28:45;1.90;;;1.40;;
11447;SDS011;43755;49.736;8.734;2022-08-06T07:30:47;1.40;;;1.30;;
11447;SDS011;43755;49.736;8.734;2022-08-06T07:32:49;2.10;;;1.48;;
11447;SDS011;43755;49.736;8.734;2022-08-06T07:34:50;1.30;;;1.20;;
11447;SDS011;43755;49.736;8.734;2022-08-06T07:36:53;1.73;;;1.20;;
11447;SDS011;43755;49.736;8.734;2022-08-06T07:38:57;2.03;;;1.27;;
11447;SDS011;43755;49.736;8.734;2022-08-06T07:41:03;3.00;;;1.38;;
11447;SDS011;43755;49.736;8.734;2022-08-06T07:43:06;1.48;;;1.25;;
11447;SDS011;43755;49.736;8.734;2022-08-06T07:45:13;2.95;;;1.42;;
11447;SDS011;43755;49.736;8.734;2022-08-06T07:47:17;1.73;;;1.10;;
11447;SDS011;43755;49.736;8.734;2022-08-06T07:49:22;2.47;;;1.48;;
11447;SDS011;43755;49.736;8.734;2022-08-06T07:51:27;2.42;;;1.20;;
11447;SDS011;43755;49.736;8.734;2022-08-06T07:53:31;1.05;;;1.00;;
11447;SDS011;43755;49.736;8.734;2022-08-06T07:55:33;2.65;;;1.15;;
11447;SDS011;43755;49.736;8.734;2022-08-06T07:57:35;2.72;;;1.10;;
11447;SDS011;43755;49.736;8.734;2022-08-06T07:59:38;2.75;;;1.05;;
11447;SDS011;43755;49.736;8.734;2022-08-06T08:01:41;3.45;;;1.10;;
11447;SDS011;43755;49.736;8.734;2022-08-06T08:03:43;2.53;;;1.20;;
11447;SDS011;43755;49.736;8.734;2022-08-06T08:06:03;0.90;;;0.90;;
11447;SDS011;43755;49.736;8.734;2022-08-06T08:08:22;1.42;;;0.95;;
11447;SDS011;43755;49.736;8.734;2022-08-06T08:10:25;1.95;;;1.05;;
11447;SDS011;43755;49.736;8.734;2022-08-06T08:12:26;1.55;;;1.08;;
11447;SDS011;43755;49.736;8.734;2022-08-06T08:14:28;4.20;;;1.08;;
11447;SDS011;43755;49.736;8.734;2022-08-06T08:16:31;2.60;;;1.23;;
11447;SDS011;43755;49.736;8.734;2022-08-06T08:18:35;1.10;;;0.90;;
11447;SDS011;43755;49.736;8.734;2022-08-06T08:20:37;1.40;;;0.95;;
11447;SDS011;43755;49.736;8.734;2022-08-06T08:22:39;1.45;;;0.85;;
11447;SDS011;43755;49.736;8.734;2022-08-06T08:24:41;0.80;;;0.80;;
11447;SDS011;43755;49.736;8.734;2022-08-06T08:26:44;1.85;;;0.95;;
11447;SDS011;43755;49.736;8.734;2022-08-06T08:28:46;1.95;;;1.10;;
11447;SDS011;43755;49.736;8.734;2022-08-06T08:30:47;1.83;;;1.02;;
11447;SDS011;43755;49.736;8.734;2022-08-06T08:32:49;1.08;;;0.98;;
11447;SDS011;43755;49.736;8.734;2022-08-06T08:34:51;1.00;;;0.90;;
11447;SDS011;43755;49.736;8.734;2022-08-06T08:36:53;1.45;;;1.00;;
11447;SDS011;43755;49.736;8.734;2022-08-06T08:38:54;1.73;;;1.10;;
11447;SDS011;43755;49.736;8.734;2022-08-06T08:40:59;1.27;;;0.90;;
11447;SDS011;43755;49.736;8.734;2022-08-06T08:43:01;3.03;;;1.08;;
11447;SDS011;43755;49.736;8.734;2022-08-06T08:45:03;1.45;;;1.00;;
11447;SDS011;43755;49.736;8.734;2022-08-06T08:47:06;2.10;;;1.00;;
11447;SDS011;43755;49.736;8.734;2022-08-06T08:49:13;2.75;;;1.02;;
11447;SDS011;43755;49.736;8.734;2022-08-06T08:51:20;1.48;;;0.95;;
11447;SDS011;43755;49.736;8.734;2022-08-06T08:53:26;2.45;;;1.10;;
11447;SDS011;43755;49.736;8.734;2022-08-06T08:55:33;1.83;;;0.90;;
11447;SDS011;43755;49.736;8.734;2022-08-06T08:57:35;2.97;;;1.10;;
11447;SDS011;43755;49.736;8.734;2022-08-06T08:59:37;2.30;;;1.15;;
11447;SDS011;43755;49.736;8.734;2022-08-06T09:01:41;1.95;;;0.80;;
11447;SDS011;43755;49.736;8.734;2022-08-06T09:03:43;0.75;;;0.75;;
11447;SDS011;43755;49.736;8.734;2022-08-06T09:05:45;3.33;;;1.90;;
11447;SDS011;43755;49.736;8.734;2022-08-06T09:07:49;0.85;;;0.73;;
11447;SDS011;43755;49.736;8.734;2022-08-06T09:09:52;2.92;;;1.10;;
11447;SDS011;43755;49.736;8.734;2022-08-06T09:11:54;1.27;;;0.90;;
11447;SDS011;43755;49.736;8.734;2022-08-06T09:13:59;3.60;;;1.00;;
11447;SDS011;43755;49.736;8.734;2022-08-06T09:16:01;1.65;;;0.70;;
11447;SDS011;43755;49.736;8.734;2022-08-06T09:18:04;3.55;;;1.10;;
11447;SDS011;43755;49.736;8.734;2022-08-06T09:20:06;1.13;;;1.02;;
11447;SDS011;43755;49.736;8.734;2022-08-06T09:22:08;3.00;;;0.80;;
11447;SDS011;43755;49.736;8.734;2022-08-06T09:24:11;1.80;;;0.98;;
11447;SDS011;43755;49.736;8.734;2022-08-06T09:26:12;2.75;;;0.90;;
11447;SDS011;43755;49.736;8.734;2022-08-06T09:28:26;1.00;;;0.63;;
11447;SDS011;43755;49.736;8.734;2022-08-06T09:30:31;1.02;;;0.85;;
11447;SDS011;43755;49.736;8.734;2022-08-06T09:32:36;1.20;;;0.93;;
11447;SDS011;43755;49.736;8.734;2022-08-06T09:34:39;2.58;;;0.80;;
11447;SDS011;43755;49.736;8.734;2022-08-06T09:36:43;0.70;;;0.70;;
11447;SDS011;43755;49.736;8.734;2022-08-06T09:38:47;3.08;;;1.10;;
11447;SDS011;43755;49.736;8.734;2022-08-06T09:41:03;1.10;;;0.88;;
11447;SDS011;43755;49.736;8.734;2022-08-06T09:43:07;0.82;;;0.80;;
11447;SDS011;43755;49.736;8.734;2022-08-06T09:45:09;1.30;;;0.70;;
11447;SDS011;43755;49.736;8.734;2022-08-06T09:47:18;3.80;;;1.00;;
11447;SDS011;43755;49.736;8.734;2022-08-06T09:49:21;1.27;;;0.95;;
11447;SDS011;43755;49.736;8.734;2022-08-06T09:51:23;2.67;;;0.88;;
11447;SDS011;43755;49.736;8.734;2022-08-06T09:53:25;0.85;;;0.68;;
11447;SDS011;43755;49.736;8.734;2022-08-06T09:55:27;1.48;;;0.90;;
11447;SDS011;43755;49.736;8.734;2022-08-06T09:57:42;2.08;;;1.00;;
11447;SDS011;43755;49.736;8.734;2022-08-06T09:59:45;0.60;;;0.60;;
11447;SDS011;43755;49.736;8.734;2022-08-06T10:01:48;1.33;;;0.98;;
11447;SDS011;43755;49.736;8.734;2022-08-06T10:03:51;1.05;;;0.82;;
11447;SDS011;43755;49.736;8.734;2022-08-06T10:06:03;1.08;;;0.52;;
11447;SDS011;43755;49.736;8.734;2022-08-06T10:08:07;2.35;;;0.85;;
11447;SDS011;43755;49.736;8.734;2022-08-06T10:10:09;1.03;;;0.70;;
11447;SDS011;43755;49.736;8.734;2022-08-06T10:12:16;2.22;;;0.90;;
11447;SDS011;43755;49.736;8.734;2022-08-06T10:14:22;0.60;;;0.60;;
11447;SDS011;43755;49.736;8.734;2022-08-06T10:16:25;3.60;;;0.63;;
11447;SDS011;43755;49.736;8.734;2022-08-06T10:18:29;1.50;;;0.50;;
11447;SDS011;43755;49.736;8.734;2022-08-06T10:20:35;0.77;;;0.67;;
11447;SDS011;43755;49.736;8.734;2022-08-06T10:22:37;1.07;;;0.73;;
11447;SDS011;43755;49.736;8.734;2022-08-06T10:24:51;2.07;;;0.90;;
11447;SDS011;43755;49.736;8.734;2022-08-06T10:26:56;2.53;;;0.80;;
11447;SDS011;43755;49.736;8.734;2022-08-06T10:29:00;1.60;;;0.87;;
11447;SDS011;43755;49.736;8.734;2022-08-06T10:31:05;3.20;;;0.70;;
11447;SDS011;43755;49.736;8.734;2022-08-06T10:33:08;1.90;;;0.70;;
11447;SDS011;43755;49.736;8.734;2022-08-06T10:35:11;0.70;;;0.70;;
11447;SDS011;43755;49.736;8.734;2022-08-06T10:37:16;0.70;;;0.70;;
11447;SDS011;43755;49.736;8.734;2022-08-06T10:39:20;1.37;;;0.57;;
11447;SDS011;43755;49.736;8.734;2022-08-06T10:41:26;1.43;;;0.70;;
11447;SDS011;43755;49.736;8.734;2022-08-06T10:43:28;0.90;;;0.60;;
11447;SDS011;43755;49.736;8.734;2022-08-06T10:45:30;1.23;;;0.67;;
11447;SDS011;43755;49.736;8.734;2022-08-06T10:47:34;2.10;;;1.00;;
11447;SDS011;43755;49.736;8.734;2022-08-06T10:49:37;2.10;;;0.77;;
11447;SDS011;43755;49.736;8.734;2022-08-06T10:51:38;1.48;;;0.80;;
11447;SDS011;43755;49.736;8.734;2022-08-06T10:53:43;2.87;;;0.90;;
11447;SDS011;43755;49.736;8.734;2022-08-06T10:55:45;0.87;;;0.70;;
11447;SDS011;43755;49.736;8.734;2022-08-06T10:57:47;1.27;;;0.80;;
11447;SDS011;43755;49.736;8.734;2022-08-06T10:59:49;2.27;;;0.90;;
11447;SDS011;43755;49.736;8.734;2022-08-06T11:01:54;2.20;;;0.70;;
11447;SDS011;43755;49.736;8.734;2022-08-06T11:04:06;1.60;;;0.80;;
11447;SDS011;43755;49.736;8.734;2022-08-06T11:06:18;2.07;;;0.83;;
11447;SDS011;43755;49.736;8.734;2022-08-06T11:08:34;2.67;;;1.00;;
11447;SDS011;43755;49.736;8.734;2022-08-06T11:10:53;0.50;;;0.50;;
11447;SDS011;43755;49.736;8.734;2022-08-06T11:13:07;4.67;;;0.80;;
11447;SDS011;43755;49.736;8.734;2022-08-06T11:15:18;1.10;;;0.87;;
11447;SDS011;43755;49.736;8.734;2022-08-06T11:17:20;1.77;;;0.90;;
11447;SDS011;43755;49.736;8.734;2022-08-06T11:21:41;0.93;;;0.63;;
11447;SDS011;43755;49.736;8.734;2022-08-06T11:23:44;0.80;;;0.80;;
11447;SDS011;43755;49.736;8.734;2022-08-06T11:25:46;1.93;;;0.70;;
11447;SDS011;43755;49.736;8.734;2022-08-06T11:27:52;3.23;;;1.10;;
11447;SDS011;43755;49.736;8.734;2022-08-06T11:34:44;1.13;;;0.80;;
11447;SDS011;43755;49.736;8.734;2022-08-06T11:36:47;1.43;;;0.77;;
11447;SDS011;43755;49.736;8.734;2022-08-06T11:38:59;1.13;;;0.80;;
11447;SDS011;43755;49.736;8.734;2022-08-06T11:41:01;2.77;;;0.80;;
11447;SDS011;43755;49.736;8.734;2022-08-06T11:43:08;1.13;;;0.80;;
11447;SDS011;43755;49.736;8.734;2022-08-06T11:45:11;2.13;;;0.97;;
11447;SDS011;43755;49.736;8.734;2022-08-06T11:47:14;2.27;;;1.03;;
11447;SDS011;43755;49.736;8.734;2022-08-06T11:49:21;2.20;;;0.73;;
11447;SDS011;43755;49.736;8.734;2022-08-06T11:51:37;1.53;;;0.70;;
11447;SDS011;43755;49.736;8.734;2022-08-06T11:53:40;1.57;;;0.77;;
11447;SDS011;43755;49.736;8.734;2022-08-06T11:58:18;0.63;;;0.60;;
11447;SDS011;43755;49.736;8.734;2022-08-06T12:00:22;0.93;;;0.87;;
11447;SDS011;43755;49.736;8.734;2022-08-06T12:04:49;1.07;;;0.60;;
11447;SDS011;43755;49.736;8.734;2022-08-06T12:06:52;1.90;;;0.67;;
11447;SDS011;43755;49.736;8.734;2022-08-06T12:09:18;1.27;;;0.60;;
11447;SDS011;43755;49.736;8.734;2022-08-06T12:11:20;0.97;;;0.70;;
11447;SDS011;43755;49.736;8.734;2022-08-06T12:13:36;1.97;;;0.70;;
11447;SDS011;43755;49.736;8.734;2022-08-06T12:15:39;1.67;;;0.73;;
11447;SDS011;43755;49.736;8.734;2022-08-06T12:17:41;0.93;;;0.70;;
11447;SDS011;43755;49.736;8.734;2022-08-06T12:19:44;1.20;;;0.30;;
11447;SDS011;43755;49.736;8.734;2022-08-06T12:21:50;0.97;;;0.50;;
11447;SDS011;43755;49.736;8.734;2022-08-06T12:23:54;1.20;;;0.80;;
11447;SDS011;43755;49.736;8.734;2022-08-06T12:25:55;1.77;;;0.80;;
11447;SDS011;43755;49.736;8.734;2022-08-06T12:27:58;1.70;;;0.77;;
11447;SDS011;43755;49.736;8.734;2022-08-06T12:30:00;3.30;;;0.80;;
11447;SDS011;43755;49.736;8.734;2022-08-06T12:34:23;0.97;;;0.90;;
11447;SDS011;43755;49.736;8.734;2022-08-06T12:36:26;2.30;;;0.67;;
11447;SDS011;43755;49.736;8.734;2022-08-06T12:38:30;1.17;;;0.90;;
11447;SDS011;43755;49.736;8.734;2022-08-06T12:40:35;0.73;;;0.50;;
11447;SDS011;43755;49.736;8.734;2022-08-06T12:42:37;0.90;;;0.80;;
11447;SDS011;43755;49.736;8.734;2022-08-06T12:44:39;0.87;;;0.70;;
11447;SDS011;43755;49.736;8.734;2022-08-06T12:46:40;0.60;;;0.60;;
11447;SDS011;43755;49.736;8.734;2022-08-06T12:48:44;0.50;;;0.50;;